sensor_id;sensor_type;location;lat;lon;timestamp;temperature;humidity
61398;DHT22;47267;48.130;-2.040;2023-09-30T00:00:58;20.70;64.60
61398;DHT22;47267;48.130;-2.040;2023-09-30T00:03:24;20.70;64.60
61398;DHT22;47267;48.130;-2.040;2023-09-30T00:05:50;20.70;64.60
61398;DHT22;47267;48.130;-2.040;2023-09-30T00:08:15;20.70;64.60
61398;DHT22;47267;48.130;-2.040;2023-09-30T00:10:41;20.70;64.60
61398;DHT22;47267;48.130;-2.040;2023-09-30T00:13:07;20.70;64.60
61398;DHT22;47267;48.130;-2.040;2023-09-30T00:15:35;20.60;64.60
61398;DHT22;47267;48.130;-2.040;2023-09-30T00:18:01;20.60;64.50
61398;DHT22;47267;48.130;-2.040;2023-09-30T00:20:28;20.60;64.50
61398;DHT22;47267;48.130;-2.040;2023-09-30T00:22:53;20.60;64.50
61398;DHT22;47267;48.130;-2.040;2023-09-30T00:25:19;20.60;64.50
61398;DHT22;47267;48.130;-2.040;2023-09-30T00:27:47;20.60;64.50
61398;DHT22;47267;48.130;-2.040;2023-09-30T00:30:12;20.60;64.50
61398;DHT22;47267;48.130;-2.040;2023-09-30T00:32:38;20.60;64.50
61398;DHT22;47267;48.130;-2.040;2023-09-30T00:35:05;20.60;64.50
61398;DHT22;47267;48.130;-2.040;2023-09-30T00:37:37;20.50;64.40
61398;DHT22;47267;48.130;-2.040;2023-09-30T00:40:03;20.50;64.40
61398;DHT22;47267;48.130;-2.040;2023-09-30T00:42:29;20.50;64.40
61398;DHT22;47267;48.130;-2.040;2023-09-30T00:44:55;20.50;64.40
61398;DHT22;47267;48.130;-2.040;2023-09-30T00:47:21;20.50;64.40
61398;DHT22;47267;48.130;-2.040;2023-09-30T00:49:49;20.50;64.30
61398;DHT22;47267;48.130;-2.040;2023-09-30T00:52:16;20.50;64.30
61398;DHT22;47267;48.130;-2.040;2023-09-30T00:54:43;20.50;64.30
61398;DHT22;47267;48.130;-2.040;2023-09-30T00:57:10;20.50;64.30
61398;DHT22;47267;48.130;-2.040;2023-09-30T00:59:36;20.40;64.30
61398;DHT22;47267;48.130;-2.040;2023-09-30T01:02:03;20.40;64.30
61398;DHT22;47267;48.130;-2.040;2023-09-30T01:04:31;20.40;64.30
61398;DHT22;47267;48.130;-2.040;2023-09-30T01:06:57;20.40;64.30
61398;DHT22;47267;48.130;-2.040;2023-09-30T01:09:23;20.40;64.30
61398;DHT22;47267;48.130;-2.040;2023-09-30T01:11:49;20.40;64.30
61398;DHT22;47267;48.130;-2.040;2023-09-30T01:14:29;20.40;64.30
61398;DHT22;47267;48.130;-2.040;2023-09-30T01:16:55;20.40;64.30
61398;DHT22;47267;48.130;-2.040;2023-09-30T01:19:21;20.40;64.30
61398;DHT22;47267;48.130;-2.040;2023-09-30T01:21:52;20.30;64.20
61398;DHT22;47267;48.130;-2.040;2023-09-30T01:24:20;20.40;64.20
61398;DHT22;47267;48.130;-2.040;2023-09-30T01:26:45;20.40;64.30
61398;DHT22;47267;48.130;-2.040;2023-09-30T01:29:11;20.40;64.30
61398;DHT22;47267;48.130;-2.040;2023-09-30T01:31:37;20.30;64.20
61398;DHT22;47267;48.130;-2.040;2023-09-30T01:34:04;20.40;64.20
61398;DHT22;47267;48.130;-2.040;2023-09-30T01:36:29;20.30;64.20
61398;DHT22;47267;48.130;-2.040;2023-09-30T01:38:55;20.30;64.20
61398;DHT22;47267;48.130;-2.040;2023-09-30T01:41:21;20.30;64.20
61398;DHT22;47267;48.130;-2.040;2023-09-30T01:43:46;20.30;64.10
61398;DHT22;47267;48.130;-2.040;2023-09-30T01:46:12;20.30;64.20
61398;DHT22;47267;48.130;-2.040;2023-09-30T01:48:38;20.30;64.20
61398;DHT22;47267;48.130;-2.040;2023-09-30T01:51:04;20.30;64.20
61398;DHT22;47267;48.130;-2.040;2023-09-30T01:53:30;20.30;64.20
61398;DHT22;47267;48.130;-2.040;2023-09-30T01:55:55;20.30;64.20
61398;DHT22;47267;48.130;-2.040;2023-09-30T01:58:21;20.20;64.10
61398;DHT22;47267;48.130;-2.040;2023-09-30T02:00:46;20.20;64.10
61398;DHT22;47267;48.130;-2.040;2023-09-30T02:03:12;20.20;64.10
61398;DHT22;47267;48.130;-2.040;2023-09-30T02:05:41;20.20;64.10
61398;DHT22;47267;48.130;-2.040;2023-09-30T02:08:06;20.20;64.10
61398;DHT22;47267;48.130;-2.040;2023-09-30T02:10:33;20.20;64.10
61398;DHT22;47267;48.130;-2.040;2023-09-30T02:12:59;20.20;64.10
61398;DHT22;47267;48.130;-2.040;2023-09-30T02:15:25;20.20;64.10
61398;DHT22;47267;48.130;-2.040;2023-09-30T02:17:51;20.20;64.10
61398;DHT22;47267;48.130;-2.040;2023-09-30T02:20:17;20.20;64.20
61398;DHT22;47267;48.130;-2.040;2023-09-30T02:22:45;20.20;64.10
61398;DHT22;47267;48.130;-2.040;2023-09-30T02:25:11;20.20;64.20
61398;DHT22;47267;48.130;-2.040;2023-09-30T02:27:41;20.10;64.10
61398;DHT22;47267;48.130;-2.040;2023-09-30T02:30:08;20.10;64.10
61398;DHT22;47267;48.130;-2.040;2023-09-30T02:32:37;20.10;64.10
61398;DHT22;47267;48.130;-2.040;2023-09-30T02:35:02;20.10;64.10
61398;DHT22;47267;48.130;-2.040;2023-09-30T02:37:32;20.10;64.00
61398;DHT22;47267;48.130;-2.040;2023-09-30T02:40:03;20.10;64.10
61398;DHT22;47267;48.130;-2.040;2023-09-30T02:42:30;20.10;64.10
61398;DHT22;47267;48.130;-2.040;2023-09-30T02:44:59;20.10;64.10
61398;DHT22;47267;48.130;-2.040;2023-09-30T02:47:24;20.00;64.00
61398;DHT22;47267;48.130;-2.040;2023-09-30T02:49:50;20.10;64.10
61398;DHT22;47267;48.130;-2.040;2023-09-30T02:52:16;20.00;64.10
61398;DHT22;47267;48.130;-2.040;2023-09-30T02:54:42;20.10;64.10
61398;DHT22;47267;48.130;-2.040;2023-09-30T02:57:07;20.10;64.10
61398;DHT22;47267;48.130;-2.040;2023-09-30T02:59:35;20.10;64.10
61398;DHT22;47267;48.130;-2.040;2023-09-30T03:02:01;20.00;64.00
61398;DHT22;47267;48.130;-2.040;2023-09-30T03:04:28;20.00;64.00
61398;DHT22;47267;48.130;-2.040;2023-09-30T03:06:54;20.00;64.00
61398;DHT22;47267;48.130;-2.040;2023-09-30T03:09:22;20.00;64.00
61398;DHT22;47267;48.130;-2.040;2023-09-30T03:11:47;20.00;64.00
61398;DHT22;47267;48.130;-2.040;2023-09-30T03:14:13;20.00;64.00
61398;DHT22;47267;48.130;-2.040;2023-09-30T03:16:40;20.00;64.00
61398;DHT22;47267;48.130;-2.040;2023-09-30T03:19:07;20.00;64.00
61398;DHT22;47267;48.130;-2.040;2023-09-30T03:21:36;20.00;64.00
61398;DHT22;47267;48.130;-2.040;2023-09-30T03:24:03;20.00;64.00
61398;DHT22;47267;48.130;-2.040;2023-09-30T03:26:30;20.00;64.00
61398;DHT22;47267;48.130;-2.040;2023-09-30T03:28:56;19.90;63.90
61398;DHT22;47267;48.130;-2.040;2023-09-30T03:31:22;20.00;64.00
61398;DHT22;47267;48.130;-2.040;2023-09-30T03:33:49;19.90;63.90
61398;DHT22;47267;48.130;-2.040;2023-09-30T03:36:16;19.90;63.90
61398;DHT22;47267;48.130;-2.040;2023-09-30T03:38:44;19.90;64.00
61398;DHT22;47267;48.130;-2.040;2023-09-30T03:41:10;19.90;63.90
61398;DHT22;47267;48.130;-2.040;2023-09-30T03:43:38;19.90;63.90
61398;DHT22;47267;48.130;-2.040;2023-09-30T03:46:07;19.90;64.00
61398;DHT22;47267;48.130;-2.040;2023-09-30T03:48:32;19.90;63.90
61398;DHT22;47267;48.130;-2.040;2023-09-30T03:51:14;19.90;63.90
61398;DHT22;47267;48.130;-2.040;2023-09-30T03:53:43;19.90;63.90
61398;DHT22;47267;48.130;-2.040;2023-09-30T03:56:09;19.90;64.00
61398;DHT22;47267;48.130;-2.040;2023-09-30T03:58:41;19.90;63.90
61398;DHT22;47267;48.130;-2.040;2023-09-30T04:01:08;19.90;63.90
61398;DHT22;47267;48.130;-2.040;2023-09-30T04:03:39;19.80;64.50
61398;DHT22;47267;48.130;-2.040;2023-09-30T04:06:05;19.80;63.90
61398;DHT22;47267;48.130;-2.040;2023-09-30T04:08:35;19.80;63.90
61398;DHT22;47267;48.130;-2.040;2023-09-30T04:11:04;19.80;63.90
61398;DHT22;47267;48.130;-2.040;2023-09-30T04:13:29;19.80;63.90
61398;DHT22;47267;48.130;-2.040;2023-09-30T04:15:56;19.80;63.90
61398;DHT22;47267;48.130;-2.040;2023-09-30T04:18:24;19.80;63.90
61398;DHT22;47267;48.130;-2.040;2023-09-30T04:20:52;19.80;63.90
61398;DHT22;47267;48.130;-2.040;2023-09-30T04:23:17;19.80;63.90
61398;DHT22;47267;48.130;-2.040;2023-09-30T04:25:45;19.80;63.90
61398;DHT22;47267;48.130;-2.040;2023-09-30T04:28:12;19.80;63.90
61398;DHT22;47267;48.130;-2.040;2023-09-30T04:30:39;19.80;63.90
61398;DHT22;47267;48.130;-2.040;2023-09-30T04:33:04;19.80;63.90
61398;DHT22;47267;48.130;-2.040;2023-09-30T04:35:30;19.70;63.80
61398;DHT22;47267;48.130;-2.040;2023-09-30T04:37:56;19.80;63.90
61398;DHT22;47267;48.130;-2.040;2023-09-30T04:40:26;19.70;63.90
61398;DHT22;47267;48.130;-2.040;2023-09-30T04:42:52;19.70;63.80
61398;DHT22;47267;48.130;-2.040;2023-09-30T04:45:21;19.70;63.90
61398;DHT22;47267;48.130;-2.040;2023-09-30T04:47:46;19.70;63.80
61398;DHT22;47267;48.130;-2.040;2023-09-30T04:50:14;19.70;63.90
61398;DHT22;47267;48.130;-2.040;2023-09-30T04:52:42;19.70;63.90
61398;DHT22;47267;48.130;-2.040;2023-09-30T04:55:08;19.70;63.90
61398;DHT22;47267;48.130;-2.040;2023-09-30T04:57:34;19.70;63.80
61398;DHT22;47267;48.130;-2.040;2023-09-30T05:00:00;19.70;63.80
61398;DHT22;47267;48.130;-2.040;2023-09-30T05:02:27;19.70;63.90
61398;DHT22;47267;48.130;-2.040;2023-09-30T05:04:53;19.70;63.90
61398;DHT22;47267;48.130;-2.040;2023-09-30T05:07:20;19.70;63.90
61398;DHT22;47267;48.130;-2.040;2023-09-30T05:09:47;19.70;63.80
61398;DHT22;47267;48.130;-2.040;2023-09-30T05:12:13;19.70;63.90
61398;DHT22;47267;48.130;-2.040;2023-09-30T05:14:38;19.60;63.80
61398;DHT22;47267;48.130;-2.040;2023-09-30T05:17:04;19.70;63.90
61398;DHT22;47267;48.130;-2.040;2023-09-30T05:19:31;19.60;63.80
61398;DHT22;47267;48.130;-2.040;2023-09-30T05:22:02;19.60;63.80
61398;DHT22;47267;48.130;-2.040;2023-09-30T05:24:28;19.60;63.80
61398;DHT22;47267;48.130;-2.040;2023-09-30T05:26:54;19.60;64.40
61398;DHT22;47267;48.130;-2.040;2023-09-30T05:29:20;19.60;63.80
61398;DHT22;47267;48.130;-2.040;2023-09-30T05:31:46;19.60;63.80
61398;DHT22;47267;48.130;-2.040;2023-09-30T05:34:12;19.60;63.80
61398;DHT22;47267;48.130;-2.040;2023-09-30T05:36:38;19.60;63.80
61398;DHT22;47267;48.130;-2.040;2023-09-30T05:39:03;19.60;63.80
61398;DHT22;47267;48.130;-2.040;2023-09-30T05:41:30;19.60;63.80
61398;DHT22;47267;48.130;-2.040;2023-09-30T05:43:56;19.60;64.40
61398;DHT22;47267;48.130;-2.040;2023-09-30T05:46:22;19.60;63.90
61398;DHT22;47267;48.130;-2.040;2023-09-30T05:48:48;19.50;63.80
61398;DHT22;47267;48.130;-2.040;2023-09-30T05:51:14;19.60;64.40
61398;DHT22;47267;48.130;-2.040;2023-09-30T05:53:41;19.50;63.80
61398;DHT22;47267;48.130;-2.040;2023-09-30T05:56:07;19.50;63.80
61398;DHT22;47267;48.130;-2.040;2023-09-30T05:58:33;19.50;63.80
61398;DHT22;47267;48.130;-2.040;2023-09-30T06:00:59;19.50;63.80
61398;DHT22;47267;48.130;-2.040;2023-09-30T06:03:26;19.50;63.80
61398;DHT22;47267;48.130;-2.040;2023-09-30T06:05:54;19.50;63.80
61398;DHT22;47267;48.130;-2.040;2023-09-30T06:08:21;19.50;63.80
61398;DHT22;47267;48.130;-2.040;2023-09-30T06:10:47;19.50;63.80
61398;DHT22;47267;48.130;-2.040;2023-09-30T06:13:12;19.50;63.80
61398;DHT22;47267;48.130;-2.040;2023-09-30T06:15:42;19.40;63.70
61398;DHT22;47267;48.130;-2.040;2023-09-30T06:18:09;19.50;63.70
61398;DHT22;47267;48.130;-2.040;2023-09-30T06:20:36;19.50;63.70
61398;DHT22;47267;48.130;-2.040;2023-09-30T06:23:02;19.40;63.70
61398;DHT22;47267;48.130;-2.040;2023-09-30T06:25:27;19.40;63.70
61398;DHT22;47267;48.130;-2.040;2023-09-30T06:27:53;19.50;63.70
61398;DHT22;47267;48.130;-2.040;2023-09-30T06:30:23;19.40;63.70
61398;DHT22;47267;48.130;-2.040;2023-09-30T06:33:00;19.40;63.70
61398;DHT22;47267;48.130;-2.040;2023-09-30T06:35:26;19.40;63.70
61398;DHT22;47267;48.130;-2.040;2023-09-30T06:37:52;19.40;63.70
61398;DHT22;47267;48.130;-2.040;2023-09-30T06:40:18;19.40;63.60
61398;DHT22;47267;48.130;-2.040;2023-09-30T06:42:44;19.40;63.70
61398;DHT22;47267;48.130;-2.040;2023-09-30T06:45:10;19.40;63.70
61398;DHT22;47267;48.130;-2.040;2023-09-30T06:47:37;19.40;63.60
61398;DHT22;47267;48.130;-2.040;2023-09-30T06:50:04;19.40;63.60
61398;DHT22;47267;48.130;-2.040;2023-09-30T06:52:39;19.40;63.60
61398;DHT22;47267;48.130;-2.040;2023-09-30T06:55:06;19.40;63.60
61398;DHT22;47267;48.130;-2.040;2023-09-30T06:57:36;19.40;63.60
61398;DHT22;47267;48.130;-2.040;2023-09-30T07:00:06;19.40;63.70
61398;DHT22;47267;48.130;-2.040;2023-09-30T07:02:34;19.30;63.60
61398;DHT22;47267;48.130;-2.040;2023-09-30T07:05:05;19.30;63.60
61398;DHT22;47267;48.130;-2.040;2023-09-30T07:07:30;19.30;63.60
61398;DHT22;47267;48.130;-2.040;2023-09-30T07:09:56;19.30;63.50
61398;DHT22;47267;48.130;-2.040;2023-09-30T07:12:22;19.30;63.50
61398;DHT22;47267;48.130;-2.040;2023-09-30T07:14:47;19.30;63.50
61398;DHT22;47267;48.130;-2.040;2023-09-30T07:17:13;19.30;63.60
61398;DHT22;47267;48.130;-2.040;2023-09-30T07:19:39;19.30;63.60
61398;DHT22;47267;48.130;-2.040;2023-09-30T07:22:05;19.30;63.50
61398;DHT22;47267;48.130;-2.040;2023-09-30T07:24:31;19.30;63.50
61398;DHT22;47267;48.130;-2.040;2023-09-30T07:26:57;19.30;63.60
61398;DHT22;47267;48.130;-2.040;2023-09-30T07:29:24;19.30;63.50
61398;DHT22;47267;48.130;-2.040;2023-09-30T07:31:49;19.20;63.50
61398;DHT22;47267;48.130;-2.040;2023-09-30T07:34:16;19.30;63.60
61398;DHT22;47267;48.130;-2.040;2023-09-30T07:36:42;19.30;63.60
61398;DHT22;47267;48.130;-2.040;2023-09-30T07:39:08;19.30;63.60
61398;DHT22;47267;48.130;-2.040;2023-09-30T07:41:36;19.20;63.50
61398;DHT22;47267;48.130;-2.040;2023-09-30T07:44:02;19.30;63.60
61398;DHT22;47267;48.130;-2.040;2023-09-30T07:46:28;19.20;63.60
61398;DHT22;47267;48.130;-2.040;2023-09-30T07:48:54;19.20;63.60
61398;DHT22;47267;48.130;-2.040;2023-09-30T07:51:20;19.20;63.60
61398;DHT22;47267;48.130;-2.040;2023-09-30T07:53:46;19.20;63.60
61398;DHT22;47267;48.130;-2.040;2023-09-30T07:56:12;19.20;63.60
61398;DHT22;47267;48.130;-2.040;2023-09-30T07:58:38;19.20;63.60
61398;DHT22;47267;48.130;-2.040;2023-09-30T08:01:04;19.20;63.60
61398;DHT22;47267;48.130;-2.040;2023-09-30T08:03:30;19.20;63.60
61398;DHT22;47267;48.130;-2.040;2023-09-30T08:05:56;19.20;63.60
61398;DHT22;47267;48.130;-2.040;2023-09-30T08:08:21;19.20;63.60
61398;DHT22;47267;48.130;-2.040;2023-09-30T08:10:49;19.20;63.60
61398;DHT22;47267;48.130;-2.040;2023-09-30T08:13:15;19.20;63.60
61398;DHT22;47267;48.130;-2.040;2023-09-30T08:15:42;19.10;63.60
61398;DHT22;47267;48.130;-2.040;2023-09-30T08:18:08;19.10;63.60
61398;DHT22;47267;48.130;-2.040;2023-09-30T08:20:34;19.10;63.60
61398;DHT22;47267;48.130;-2.040;2023-09-30T08:22:59;19.10;63.60
61398;DHT22;47267;48.130;-2.040;2023-09-30T08:25:25;19.10;63.60
61398;DHT22;47267;48.130;-2.040;2023-09-30T08:27:51;19.10;63.60
61398;DHT22;47267;48.130;-2.040;2023-09-30T08:30:17;19.10;63.60
61398;DHT22;47267;48.130;-2.040;2023-09-30T08:32:43;19.10;63.60
61398;DHT22;47267;48.130;-2.040;2023-09-30T08:35:09;19.10;63.60
61398;DHT22;47267;48.130;-2.040;2023-09-30T08:37:35;19.10;64.10
61398;DHT22;47267;48.130;-2.040;2023-09-30T08:40:00;19.10;63.60
61398;DHT22;47267;48.130;-2.040;2023-09-30T08:42:27;19.10;63.50
61398;DHT22;47267;48.130;-2.040;2023-09-30T08:44:58;19.10;63.60
61398;DHT22;47267;48.130;-2.040;2023-09-30T08:47:28;19.10;63.60
61398;DHT22;47267;48.130;-2.040;2023-09-30T08:49:59;19.10;63.60
61398;DHT22;47267;48.130;-2.040;2023-09-30T08:52:32;19.10;63.60
61398;DHT22;47267;48.130;-2.040;2023-09-30T08:54:58;19.10;63.60
61398;DHT22;47267;48.130;-2.040;2023-09-30T08:57:24;19.10;63.60
61398;DHT22;47267;48.130;-2.040;2023-09-30T08:59:53;19.10;63.60
61398;DHT22;47267;48.130;-2.040;2023-09-30T09:02:19;19.00;63.50
61398;DHT22;47267;48.130;-2.040;2023-09-30T09:04:47;19.00;63.50
61398;DHT22;47267;48.130;-2.040;2023-09-30T09:07:14;19.00;63.50
61398;DHT22;47267;48.130;-2.040;2023-09-30T09:09:40;19.00;63.60
61398;DHT22;47267;48.130;-2.040;2023-09-30T09:12:15;19.10;63.60
61398;DHT22;47267;48.130;-2.040;2023-09-30T09:14:44;19.10;63.60
61398;DHT22;47267;48.130;-2.040;2023-09-30T09:17:11;19.10;63.60
61398;DHT22;47267;48.130;-2.040;2023-09-30T09:19:36;19.10;63.60
61398;DHT22;47267;48.130;-2.040;2023-09-30T09:22:02;19.00;63.50
61398;DHT22;47267;48.130;-2.040;2023-09-30T09:24:36;19.00;63.50
61398;DHT22;47267;48.130;-2.040;2023-09-30T09:27:12;19.00;63.50
61398;DHT22;47267;48.130;-2.040;2023-09-30T09:29:42;19.00;63.50
61398;DHT22;47267;48.130;-2.040;2023-09-30T09:32:09;19.00;63.50
61398;DHT22;47267;48.130;-2.040;2023-09-30T09:34:35;19.00;63.50
61398;DHT22;47267;48.130;-2.040;2023-09-30T09:37:17;19.00;64.10
61398;DHT22;47267;48.130;-2.040;2023-09-30T09:39:50;19.00;63.60
61398;DHT22;47267;48.130;-2.040;2023-09-30T09:42:28;19.00;63.60
61398;DHT22;47267;48.130;-2.040;2023-09-30T09:45:02;19.00;63.60
61398;DHT22;47267;48.130;-2.040;2023-09-30T09:47:29;19.00;63.60
61398;DHT22;47267;48.130;-2.040;2023-09-30T09:49:57;19.00;63.70
61398;DHT22;47267;48.130;-2.040;2023-09-30T09:52:24;19.00;63.70
61398;DHT22;47267;48.130;-2.040;2023-09-30T09:54:50;19.00;63.70
61398;DHT22;47267;48.130;-2.040;2023-09-30T09:57:17;19.00;63.70
61398;DHT22;47267;48.130;-2.040;2023-09-30T09:59:44;19.00;64.30
61398;DHT22;47267;48.130;-2.040;2023-09-30T10:02:13;19.00;63.70
61398;DHT22;47267;48.130;-2.040;2023-09-30T10:04:41;19.00;63.70
61398;DHT22;47267;48.130;-2.040;2023-09-30T10:07:14;19.00;63.70
61398;DHT22;47267;48.130;-2.040;2023-09-30T10:09:45;19.00;63.70
61398;DHT22;47267;48.130;-2.040;2023-09-30T10:12:12;19.00;63.70
61398;DHT22;47267;48.130;-2.040;2023-09-30T10:14:38;19.00;63.80
61398;DHT22;47267;48.130;-2.040;2023-09-30T10:17:04;19.00;63.80
61398;DHT22;47267;48.130;-2.040;2023-09-30T10:19:29;19.00;63.80
61398;DHT22;47267;48.130;-2.040;2023-09-30T10:24:46;19.00;63.90
61398;DHT22;47267;48.130;-2.040;2023-09-30T10:40:50;19.10;64.10
61398;DHT22;47267;48.130;-2.040;2023-09-30T10:43:36;19.10;64.10
61398;DHT22;47267;48.130;-2.040;2023-09-30T10:48:47;19.10;64.10
61398;DHT22;47267;48.130;-2.040;2023-09-30T10:51:14;19.00;64.20
61398;DHT22;47267;48.130;-2.040;2023-09-30T10:53:46;19.10;64.30
61398;DHT22;47267;48.130;-2.040;2023-09-30T10:56:12;19.00;64.20
61398;DHT22;47267;48.130;-2.040;2023-09-30T10:58:42;19.10;64.30
61398;DHT22;47267;48.130;-2.040;2023-09-30T11:01:08;19.10;64.30
61398;DHT22;47267;48.130;-2.040;2023-09-30T11:03:34;19.10;64.40
61398;DHT22;47267;48.130;-2.040;2023-09-30T11:06:01;19.10;64.40
61398;DHT22;47267;48.130;-2.040;2023-09-30T11:08:29;19.10;64.40
61398;DHT22;47267;48.130;-2.040;2023-09-30T11:10:58;19.10;64.40
61398;DHT22;47267;48.130;-2.040;2023-09-30T11:13:32;19.10;64.40
61398;DHT22;47267;48.130;-2.040;2023-09-30T11:16:03;19.10;64.50
61398;DHT22;47267;48.130;-2.040;2023-09-30T11:18:33;19.10;64.50
61398;DHT22;47267;48.130;-2.040;2023-09-30T11:21:07;19.10;64.50
61398;DHT22;47267;48.130;-2.040;2023-09-30T11:23:33;19.20;64.60
61398;DHT22;47267;48.130;-2.040;2023-09-30T11:25:59;19.10;64.70
61398;DHT22;47267;48.130;-2.040;2023-09-30T11:28:25;19.20;64.70
61398;DHT22;47267;48.130;-2.040;2023-09-30T11:31:00;19.20;64.80
61398;DHT22;47267;48.130;-2.040;2023-09-30T11:33:28;19.20;64.80
61398;DHT22;47267;48.130;-2.040;2023-09-30T11:38:23;19.20;64.50
61398;DHT22;47267;48.130;-2.040;2023-09-30T11:41:03;19.20;64.60
61398;DHT22;47267;48.130;-2.040;2023-09-30T11:43:33;19.20;64.60
61398;DHT22;47267;48.130;-2.040;2023-09-30T11:46:12;19.20;64.50
61398;DHT22;47267;48.130;-2.040;2023-09-30T11:48:56;19.20;64.60
61398;DHT22;47267;48.130;-2.040;2023-09-30T11:51:22;19.20;64.50
61398;DHT22;47267;48.130;-2.040;2023-09-30T11:53:49;19.30;64.60
61398;DHT22;47267;48.130;-2.040;2023-09-30T11:56:23;19.30;64.60
61398;DHT22;47267;48.130;-2.040;2023-09-30T11:58:55;19.30;64.60
61398;DHT22;47267;48.130;-2.040;2023-09-30T12:01:21;19.30;64.70
61398;DHT22;47267;48.130;-2.040;2023-09-30T12:03:48;19.30;64.70
61398;DHT22;47267;48.130;-2.040;2023-09-30T12:06:14;19.40;64.70
61398;DHT22;47267;48.130;-2.040;2023-09-30T12:08:42;19.40;64.80
61398;DHT22;47267;48.130;-2.040;2023-09-30T12:11:07;19.40;64.80
61398;DHT22;47267;48.130;-2.040;2023-09-30T12:13:33;19.40;64.80
61398;DHT22;47267;48.130;-2.040;2023-09-30T12:15:59;19.40;64.80
61398;DHT22;47267;48.130;-2.040;2023-09-30T12:18:25;19.50;64.80
61398;DHT22;47267;48.130;-2.040;2023-09-30T12:20:50;19.50;64.90
61398;DHT22;47267;48.130;-2.040;2023-09-30T12:23:18;19.50;64.90
61398;DHT22;47267;48.130;-2.040;2023-09-30T12:25:44;19.50;64.90
61398;DHT22;47267;48.130;-2.040;2023-09-30T12:28:09;19.50;64.90
61398;DHT22;47267;48.130;-2.040;2023-09-30T12:30:35;19.60;65.00
61398;DHT22;47267;48.130;-2.040;2023-09-30T12:33:01;19.60;65.00
61398;DHT22;47267;48.130;-2.040;2023-09-30T12:35:27;19.60;65.00
61398;DHT22;47267;48.130;-2.040;2023-09-30T12:37:52;19.60;65.00
61398;DHT22;47267;48.130;-2.040;2023-09-30T12:40:18;19.60;65.00
61398;DHT22;47267;48.130;-2.040;2023-09-30T12:42:44;19.70;65.10
61398;DHT22;47267;48.130;-2.040;2023-09-30T12:45:11;19.70;65.10
61398;DHT22;47267;48.130;-2.040;2023-09-30T12:47:38;19.70;65.10
61398;DHT22;47267;48.130;-2.040;2023-09-30T12:50:04;19.80;65.10
61398;DHT22;47267;48.130;-2.040;2023-09-30T12:52:30;19.80;65.10
61398;DHT22;47267;48.130;-2.040;2023-09-30T12:54:58;19.80;65.10
61398;DHT22;47267;48.130;-2.040;2023-09-30T12:57:24;19.90;65.20
61398;DHT22;47267;48.130;-2.040;2023-09-30T12:59:49;19.90;65.20
61398;DHT22;47267;48.130;-2.040;2023-09-30T13:02:16;19.90;65.10
61398;DHT22;47267;48.130;-2.040;2023-09-30T13:04:44;19.90;65.10
61398;DHT22;47267;48.130;-2.040;2023-09-30T13:07:10;19.90;65.10
61398;DHT22;47267;48.130;-2.040;2023-09-30T13:09:38;20.00;65.20
61398;DHT22;47267;48.130;-2.040;2023-09-30T13:12:04;20.00;65.20
61398;DHT22;47267;48.130;-2.040;2023-09-30T13:14:29;20.00;65.20
61398;DHT22;47267;48.130;-2.040;2023-09-30T13:16:55;20.00;65.20
61398;DHT22;47267;48.130;-2.040;2023-09-30T13:19:21;20.00;65.20
61398;DHT22;47267;48.130;-2.040;2023-09-30T13:21:50;20.10;65.30
61398;DHT22;47267;48.130;-2.040;2023-09-30T13:24:16;20.10;65.30
61398;DHT22;47267;48.130;-2.040;2023-09-30T13:26:42;20.10;65.20
61398;DHT22;47267;48.130;-2.040;2023-09-30T13:29:07;20.10;65.20
61398;DHT22;47267;48.130;-2.040;2023-09-30T13:31:35;20.20;65.30
61398;DHT22;47267;48.130;-2.040;2023-09-30T13:34:07;20.20;65.20
61398;DHT22;47267;48.130;-2.040;2023-09-30T13:36:33;20.20;65.20
61398;DHT22;47267;48.130;-2.040;2023-09-30T13:38:59;20.30;65.30
61398;DHT22;47267;48.130;-2.040;2023-09-30T13:41:26;20.30;65.30
61398;DHT22;47267;48.130;-2.040;2023-09-30T13:43:52;20.30;65.20
61398;DHT22;47267;48.130;-2.040;2023-09-30T13:46:18;20.30;65.20
61398;DHT22;47267;48.130;-2.040;2023-09-30T13:48:44;20.30;65.30
61398;DHT22;47267;48.130;-2.040;2023-09-30T13:51:10;20.40;65.30
61398;DHT22;47267;48.130;-2.040;2023-09-30T13:53:38;20.40;65.40
61398;DHT22;47267;48.130;-2.040;2023-09-30T13:56:04;20.40;65.50
61398;DHT22;47267;48.130;-2.040;2023-09-30T13:58:32;20.50;65.60
61398;DHT22;47267;48.130;-2.040;2023-09-30T14:00:57;20.50;65.60
61398;DHT22;47267;48.130;-2.040;2023-09-30T14:03:23;20.50;65.60
61398;DHT22;47267;48.130;-2.040;2023-09-30T14:05:51;20.70;65.70
61398;DHT22;47267;48.130;-2.040;2023-09-30T14:08:18;20.70;65.50
61398;DHT22;47267;48.130;-2.040;2023-09-30T14:10:44;20.90;65.50
61398;DHT22;47267;48.130;-2.040;2023-09-30T14:13:10;20.90;65.40
61398;DHT22;47267;48.130;-2.040;2023-09-30T14:15:36;21.00;65.40
61398;DHT22;47267;48.130;-2.040;2023-09-30T14:18:03;21.00;65.40
61398;DHT22;47267;48.130;-2.040;2023-09-30T14:20:29;21.10;65.40
61398;DHT22;47267;48.130;-2.040;2023-09-30T14:22:55;21.20;65.40
61398;DHT22;47267;48.130;-2.040;2023-09-30T14:25:23;21.20;65.30
61398;DHT22;47267;48.130;-2.040;2023-09-30T14:27:49;21.30;65.30
61398;DHT22;47267;48.130;-2.040;2023-09-30T14:30:15;21.30;65.30
61398;DHT22;47267;48.130;-2.040;2023-09-30T14:32:41;21.40;65.30
61398;DHT22;47267;48.130;-2.040;2023-09-30T14:35:08;21.40;65.30
61398;DHT22;47267;48.130;-2.040;2023-09-30T14:37:35;21.40;65.30
61398;DHT22;47267;48.130;-2.040;2023-09-30T14:40:01;21.50;65.30
61398;DHT22;47267;48.130;-2.040;2023-09-30T14:42:30;21.50;65.20
61398;DHT22;47267;48.130;-2.040;2023-09-30T14:44:56;21.50;65.20
61398;DHT22;47267;48.130;-2.040;2023-09-30T14:47:22;21.60;65.30
61398;DHT22;47267;48.130;-2.040;2023-09-30T14:49:48;21.60;65.20
61398;DHT22;47267;48.130;-2.040;2023-09-30T14:52:14;21.60;65.20
61398;DHT22;47267;48.130;-2.040;2023-09-30T14:54:41;21.60;65.20
61398;DHT22;47267;48.130;-2.040;2023-09-30T14:57:06;21.70;65.30
61398;DHT22;47267;48.130;-2.040;2023-09-30T14:59:33;21.70;65.30
61398;DHT22;47267;48.130;-2.040;2023-09-30T15:01:59;21.70;65.20
61398;DHT22;47267;48.130;-2.040;2023-09-30T15:04:25;21.70;65.30
61398;DHT22;47267;48.130;-2.040;2023-09-30T15:06:51;21.80;65.30
61398;DHT22;47267;48.130;-2.040;2023-09-30T15:09:17;21.80;65.30
61398;DHT22;47267;48.130;-2.040;2023-09-30T15:11:43;21.80;65.30
61398;DHT22;47267;48.130;-2.040;2023-09-30T15:14:09;21.80;65.20
61398;DHT22;47267;48.130;-2.040;2023-09-30T15:16:36;21.80;65.20
61398;DHT22;47267;48.130;-2.040;2023-09-30T15:19:01;21.90;65.40
61398;DHT22;47267;48.130;-2.040;2023-09-30T15:21:27;21.90;65.30
61398;DHT22;47267;48.130;-2.040;2023-09-30T15:23:53;21.90;65.30
61398;DHT22;47267;48.130;-2.040;2023-09-30T15:26:19;21.90;65.30
61398;DHT22;47267;48.130;-2.040;2023-09-30T15:28:45;22.00;65.40
61398;DHT22;47267;48.130;-2.040;2023-09-30T15:31:11;22.00;65.30
61398;DHT22;47267;48.130;-2.040;2023-09-30T15:33:36;22.00;65.30
61398;DHT22;47267;48.130;-2.040;2023-09-30T15:36:09;22.00;65.30